createdAt,value
2023-04-09T00:00:24.839Z,3.40
2023-04-09T00:02:54.381Z,3.20
2023-04-09T00:05:24.045Z,3.10
2023-04-09T00:07:52.607Z,3.20
2023-04-09T00:10:21.023Z,3.10
2023-04-09T00:12:51.775Z,3.10
2023-04-09T00:15:30.751Z,3.20
2023-04-09T00:18:02.686Z,3.00
2023-04-09T00:20:33.405Z,3.10
2023-04-09T00:23:01.759Z,3.00
2023-04-09T00:25:31.276Z,3.20
2023-04-09T00:27:59.583Z,3.40
2023-04-09T00:30:31.549Z,3.40
2023-04-09T00:33:02.342Z,3.40
2023-04-09T00:35:31.876Z,3.30
2023-04-09T00:38:01.335Z,3.30
2023-04-09T00:40:31.139Z,3.30
2023-04-09T00:43:01.127Z,3.20
2023-04-09T00:45:30.618Z,3.10
2023-04-09T00:47:58.922Z,3.00
2023-04-09T00:50:28.842Z,3.50
2023-04-09T00:52:57.387Z,2.80
2023-04-09T00:55:28.470Z,2.80
2023-04-09T00:57:56.748Z,2.90
2023-04-09T01:00:26.730Z,2.80
2023-04-09T01:02:58.811Z,2.80
2023-04-09T01:05:37.400Z,2.70
2023-04-09T01:08:13.889Z,2.60
2023-04-09T01:10:49.696Z,2.60
2023-04-09T01:13:36.108Z,2.40
2023-04-09T01:16:08.193Z,2.40
2023-04-09T01:18:44.140Z,2.20
2023-04-09T01:21:20.109Z,2.20
2023-04-09T01:23:59.447Z,2.10
2023-04-09T01:26:54.968Z,1.90
2023-04-09T01:29:31.636Z,1.90
2023-04-09T01:32:03.337Z,2.20
2023-04-09T01:34:32.817Z,1.80
2023-04-09T01:37:04.319Z,1.80
2023-04-09T01:39:34.289Z,1.80
2023-04-09T01:42:05.180Z,1.70
2023-04-09T01:44:35.209Z,2.10
2023-04-09T01:47:03.803Z,1.50
2023-04-09T01:49:34.098Z,1.50
2023-04-09T01:52:04.325Z,1.50
2023-04-09T01:54:33.022Z,1.50
2023-04-09T01:57:03.748Z,1.40
2023-04-09T01:59:34.517Z,1.30
2023-04-09T02:02:12.510Z,1.30
2023-04-09T02:04:47.486Z,1.30
2023-04-09T02:07:28.067Z,1.40
2023-04-09T02:09:58.745Z,1.50
2023-04-09T02:12:30.725Z,1.40
2023-04-09T02:15:02.124Z,1.40
2023-04-09T02:17:33.909Z,1.40
2023-04-09T02:20:03.448Z,1.40
2023-04-09T02:22:34.067Z,1.50
2023-04-09T02:25:03.470Z,1.60
2023-04-09T02:27:34.128Z,1.50
2023-04-09T02:30:04.173Z,1.50
2023-04-09T02:32:34.878Z,1.50
2023-04-09T02:35:03.539Z,1.50
2023-04-09T02:37:32.962Z,1.50
2023-04-09T02:40:02.741Z,1.40
2023-04-09T02:42:32.195Z,1.50
2023-04-09T02:45:00.363Z,1.40
2023-04-09T02:47:30.549Z,1.30
2023-04-09T02:50:00.042Z,1.30
2023-04-09T02:52:32.483Z,1.20
2023-04-09T02:55:01.841Z,1.00
2023-04-09T02:57:30.586Z,0.90
2023-04-09T03:00:00.340Z,0.80
2023-04-09T03:02:31.207Z,0.70
2023-04-09T03:05:00.822Z,0.60
2023-04-09T03:07:31.446Z,0.80
2023-04-09T03:10:00.916Z,0.80
2023-04-09T03:12:30.289Z,0.90
2023-04-09T03:14:59.820Z,0.90
2023-04-09T03:17:29.197Z,0.90
2023-04-09T03:19:59.024Z,0.90
2023-04-09T03:22:38.335Z,0.90
2023-04-09T03:25:13.873Z,1.00
2023-04-09T03:27:43.671Z,1.10
2023-04-09T03:30:15.450Z,1.20
2023-04-09T03:32:46.097Z,1.10
2023-04-09T03:35:17.558Z,1.10
2023-04-09T03:37:47.138Z,1.20
2023-04-09T03:40:19.427Z,1.10
2023-04-09T03:42:47.968Z,1.00
2023-04-09T03:45:18.026Z,1.00
2023-04-09T03:47:51.159Z,0.90
2023-04-09T03:50:26.013Z,0.90
2023-04-09T03:52:58.809Z,0.80
2023-04-09T03:55:28.113Z,0.70
2023-04-09T03:57:57.803Z,0.60
2023-04-09T04:00:31.544Z,0.50
2023-04-09T04:03:18.152Z,0.50
2023-04-09T04:06:07.589Z,0.50
2023-04-09T04:08:47.766Z,0.50
2023-04-09T04:11:16.649Z,0.40
2023-04-09T04:13:47.550Z,0.40
2023-04-09T04:16:17.076Z,0.40
2023-04-09T04:18:45.662Z,0.40
2023-04-09T04:21:17.544Z,0.40
2023-04-09T04:23:56.497Z,0.40
2023-04-09T04:26:28.418Z,0.30
2023-04-09T04:28:58.534Z,0.20
2023-04-09T04:31:45.703Z,0.20
2023-04-09T04:34:18.026Z,0.20
2023-04-09T04:36:54.218Z,0.20
2023-04-09T04:39:23.956Z,0.10
2023-04-09T04:42:01.481Z,0.20
2023-04-09T04:44:31.603Z,0.10
2023-04-09T04:47:12.073Z,0.10
2023-04-09T04:49:41.582Z,0.10
2023-04-09T04:52:12.111Z,0.10
2023-04-09T04:54:44.274Z,0.00
2023-04-09T04:57:20.419Z,0.00
2023-04-09T04:59:50.148Z,0.00
2023-04-09T05:02:21.767Z,0.00
2023-04-09T05:05:15.880Z,0.00
2023-04-09T05:07:52.413Z,0.10
2023-04-09T05:10:21.984Z,0.10
2023-04-09T05:12:51.471Z,0.30
2023-04-09T05:15:31.993Z,0.30
2023-04-09T05:18:01.983Z,0.40
2023-04-09T05:20:31.643Z,0.60
2023-04-09T05:23:13.964Z,0.70
2023-04-09T05:25:49.627Z,0.80
2023-04-09T05:28:29.999Z,1.00
2023-04-09T05:31:12.975Z,1.00
2023-04-09T05:33:50.930Z,1.30
2023-04-09T05:36:25.956Z,1.10
2023-04-09T05:38:55.979Z,1.30
2023-04-09T05:41:25.733Z,1.50
2023-04-09T05:44:26.503Z,1.90
2023-04-09T05:47:02.056Z,2.00
2023-04-09T05:49:42.620Z,2.10
2023-04-09T05:52:18.020Z,2.30
2023-04-09T05:54:47.535Z,2.30
2023-04-09T05:57:21.819Z,2.50
2023-04-09T05:59:58.248Z,2.60
2023-04-09T06:02:28.989Z,2.80
2023-04-09T06:04:57.412Z,3.00
2023-04-09T06:07:27.362Z,3.10
2023-04-09T06:09:58.075Z,3.30
2023-04-09T06:12:27.580Z,3.60
2023-04-09T06:14:57.244Z,3.80
2023-04-09T06:17:26.683Z,4.10
2023-04-09T06:19:54.904Z,4.40
2023-04-09T06:22:23.164Z,4.60
2023-04-09T06:24:52.841Z,4.90
2023-04-09T06:27:24.323Z,5.40
2023-04-09T06:29:53.767Z,5.50
2023-04-09T06:32:24.466Z,5.70
2023-04-09T06:34:52.910Z,5.90
2023-04-09T06:37:21.260Z,6.10
2023-04-09T06:40:00.672Z,6.40
2023-04-09T06:42:31.103Z,6.60
2023-04-09T06:45:11.165Z,7.00
2023-04-09T06:47:39.741Z,7.10
2023-04-09T06:50:11.604Z,7.30
2023-04-09T06:52:41.566Z,7.50
2023-04-09T06:55:11.499Z,8.00
2023-04-09T06:57:42.245Z,8.40
2023-04-09T07:00:13.152Z,8.80
2023-04-09T07:02:44.556Z,9.40
2023-04-09T07:05:13.232Z,10.10
2023-04-09T07:07:42.772Z,10.50
2023-04-09T07:10:11.438Z,11.20
2023-04-09T07:12:43.378Z,11.50
2023-04-09T07:15:11.853Z,12.10
2023-04-09T07:17:42.541Z,12.40
2023-04-09T07:20:13.149Z,12.60
2023-04-09T07:22:43.854Z,12.90
2023-04-09T07:25:13.338Z,13.30
2023-04-09T07:27:44.662Z,13.50
2023-04-09T07:30:14.172Z,13.40
2023-04-09T07:32:43.796Z,13.50
2023-04-09T07:35:12.601Z,13.90
2023-04-09T07:37:42.157Z,13.90
2023-04-09T07:40:11.073Z,14.10
2023-04-09T07:42:41.150Z,14.30
2023-04-09T07:45:11.202Z,14.50
2023-04-09T07:47:41.972Z,14.50
2023-04-09T07:50:11.417Z,14.90
2023-04-09T07:52:42.075Z,14.90
2023-04-09T07:55:10.809Z,15.50
2023-04-09T07:57:39.323Z,16.00
2023-04-09T08:00:12.211Z,16.20
2023-04-09T08:02:42.196Z,16.20
2023-04-09T08:05:11.913Z,16.40
2023-04-09T08:07:41.308Z,17.00
2023-04-09T08:10:15.012Z,17.10
2023-04-09T08:12:46.116Z,16.90
2023-04-09T08:15:16.070Z,16.90
2023-04-09T08:17:45.661Z,17.30
2023-04-09T08:20:16.916Z,17.50
2023-04-09T08:22:46.558Z,17.40
2023-04-09T08:25:15.998Z,17.90
2023-04-09T08:27:44.204Z,17.70
2023-04-09T08:30:17.529Z,17.70
2023-04-09T08:32:48.417Z,17.90
2023-04-09T08:35:16.954Z,17.80
2023-04-09T08:37:45.496Z,17.60
2023-04-09T08:40:15.540Z,17.60
2023-04-09T08:42:47.682Z,17.60
2023-04-09T08:45:17.435Z,17.20
2023-04-09T08:47:49.317Z,17.40
2023-04-09T08:50:19.067Z,17.90
2023-04-09T08:52:49.025Z,18.10
2023-04-09T08:55:17.787Z,18.20
2023-04-09T08:57:46.001Z,18.00
2023-04-09T09:00:16.152Z,18.00
2023-04-09T09:03:08.724Z,18.20
2023-04-09T09:05:40.317Z,18.30
2023-04-09T09:08:10.784Z,18.30
2023-04-09T09:10:42.930Z,18.10
2023-04-09T09:13:23.662Z,18.10
2023-04-09T09:15:57.074Z,18.00
2023-04-09T09:18:40.402Z,17.60
2023-04-09T09:21:12.887Z,17.10
2023-04-09T09:23:44.908Z,16.40
2023-04-09T09:26:16.366Z,16.40
2023-04-09T09:28:45.474Z,16.80
2023-04-09T09:31:18.112Z,16.90
2023-04-09T09:33:49.622Z,16.50
2023-04-09T09:36:33.358Z,16.30
2023-04-09T09:39:09.916Z,15.80
2023-04-09T09:41:38.616Z,15.50
2023-04-09T09:44:10.015Z,15.40
2023-04-09T09:46:43.416Z,16.10
2023-04-09T09:49:12.887Z,16.30
2023-04-09T09:51:43.377Z,16.30
2023-04-09T09:54:14.605Z,15.90
2023-04-09T09:56:46.456Z,16.00
2023-04-09T09:59:23.708Z,15.90
2023-04-09T10:02:01.390Z,16.10
2023-04-09T10:04:35.699Z,16.30
2023-04-09T10:07:08.247Z,16.50
2023-04-09T10:09:42.903Z,16.60
2023-04-09T10:12:12.789Z,16.50
2023-04-09T10:14:42.899Z,16.50
2023-04-09T10:17:14.118Z,16.40
2023-04-09T10:19:51.973Z,16.50
2023-04-09T10:22:24.470Z,16.40
2023-04-09T10:24:56.976Z,16.20
2023-04-09T10:27:28.454Z,16.00
2023-04-09T10:29:59.169Z,15.60
2023-04-09T10:32:28.952Z,15.70
2023-04-09T10:35:00.762Z,16.10
2023-04-09T10:37:30.464Z,16.50
2023-04-09T10:39:58.854Z,16.60
2023-04-09T10:42:36.471Z,16.10
2023-04-09T10:45:10.274Z,15.60
2023-04-09T10:47:43.591Z,15.60
2023-04-09T10:50:20.221Z,16.10
2023-04-09T10:52:54.931Z,16.10
2023-04-09T10:55:38.521Z,16.20
2023-04-09T10:58:09.056Z,15.80
2023-04-09T11:00:41.681Z,15.80
2023-04-09T11:03:28.520Z,16.00
2023-04-09T11:06:02.012Z,15.80
2023-04-09T11:08:34.561Z,15.80
2023-04-09T11:11:04.175Z,15.60
2023-04-09T11:13:34.720Z,16.30
2023-04-09T11:16:06.838Z,17.10
2023-04-09T11:18:39.359Z,18.60
2023-04-09T11:21:10.261Z,19.50
2023-04-09T11:23:39.827Z,20.00
2023-04-09T11:26:10.338Z,19.20
2023-04-09T11:28:44.244Z,17.90
2023-04-09T11:31:12.856Z,17.00
2023-04-09T11:33:47.960Z,16.20
2023-04-09T11:36:17.949Z,16.20
2023-04-09T11:38:51.684Z,15.70
2023-04-09T11:41:20.654Z,15.60
2023-04-09T11:43:48.917Z,15.40
2023-04-09T11:46:17.360Z,15.40
2023-04-09T11:48:49.000Z,15.40
2023-04-09T11:51:17.425Z,15.20
2023-04-09T11:53:45.817Z,15.30
2023-04-09T11:56:15.764Z,15.40
2023-04-09T11:58:49.253Z,15.40
2023-04-09T12:01:18.903Z,15.60
2023-04-09T12:03:54.257Z,15.70
2023-04-09T12:06:25.182Z,15.70
2023-04-09T12:08:55.316Z,15.80
2023-04-09T12:11:31.376Z,15.80
2023-04-09T12:14:04.703Z,15.70
2023-04-09T12:16:36.427Z,15.80
2023-04-09T12:19:08.701Z,15.50
2023-04-09T12:21:50.692Z,15.70
2023-04-09T12:24:22.728Z,15.80
2023-04-09T12:26:51.900Z,16.00
2023-04-09T12:29:22.552Z,16.00
2023-04-09T12:31:53.877Z,15.80
2023-04-09T12:34:25.005Z,15.90
2023-04-09T12:36:54.653Z,15.80
2023-04-09T12:39:24.233Z,15.60
2023-04-09T12:41:54.455Z,15.60
2023-04-09T12:44:22.927Z,15.40
2023-04-09T12:46:51.129Z,15.60
2023-04-09T12:49:21.270Z,15.50
2023-04-09T12:51:51.370Z,15.20
2023-04-09T12:54:20.812Z,15.60
2023-04-09T12:56:50.088Z,15.80
2023-04-09T12:59:19.784Z,15.90
2023-04-09T13:01:48.159Z,16.10
2023-04-09T13:04:16.460Z,16.20
2023-04-09T13:06:46.370Z,16.10
2023-04-09T13:09:18.430Z,16.30
2023-04-09T13:11:47.931Z,16.00
2023-04-09T13:14:17.345Z,16.20
2023-04-09T13:16:45.681Z,16.10
2023-04-09T13:19:16.861Z,16.50
2023-04-09T13:21:46.280Z,16.30
2023-04-09T13:24:17.233Z,16.50
2023-04-09T13:26:47.202Z,17.40
2023-04-09T13:29:15.585Z,18.50
2023-04-09T13:31:43.809Z,18.70
2023-04-09T13:34:14.420Z,18.50
2023-04-09T13:36:43.966Z,17.80
2023-04-09T13:39:13.459Z,17.40
2023-04-09T13:41:44.926Z,17.30
2023-04-09T13:44:14.436Z,16.70
2023-04-09T13:46:43.959Z,16.70
2023-04-09T13:49:14.793Z,16.30
2023-04-09T13:51:44.323Z,16.30
2023-04-09T13:54:12.457Z,16.10
2023-04-09T13:56:42.405Z,15.60
2023-04-09T13:59:12.030Z,15.70
2023-04-09T14:01:40.918Z,15.80
2023-04-09T14:04:09.708Z,16.00
2023-04-09T14:06:37.975Z,16.00
2023-04-09T14:09:07.414Z,16.20
2023-04-09T14:11:35.665Z,16.00
2023-04-09T14:14:05.483Z,15.80
2023-04-09T14:16:36.231Z,15.70
2023-04-09T14:19:06.463Z,15.50
2023-04-09T14:21:37.207Z,15.90
2023-04-09T14:24:06.143Z,16.00
2023-04-09T14:26:36.920Z,15.90
2023-04-09T14:29:05.327Z,16.10
2023-04-09T14:31:36.266Z,15.90
2023-04-09T14:34:05.985Z,15.70
2023-04-09T14:36:35.451Z,15.60
2023-04-09T14:39:05.176Z,15.60
2023-04-09T14:41:36.620Z,15.60
2023-04-09T14:44:05.166Z,15.50
2023-04-09T14:46:37.375Z,15.30
2023-04-09T14:49:07.064Z,15.20
2023-04-09T14:51:37.337Z,15.20
2023-04-09T14:54:06.021Z,14.80
2023-04-09T14:56:34.301Z,14.80
2023-04-09T14:59:02.586Z,14.90
2023-04-09T15:01:33.345Z,14.70
2023-04-09T15:04:04.375Z,14.50
2023-04-09T15:06:33.985Z,14.60
2023-04-09T15:09:03.524Z,14.60
2023-04-09T15:11:31.814Z,14.40
2023-04-09T15:14:01.346Z,14.10
2023-04-09T15:16:34.542Z,14.30
2023-04-09T15:19:05.559Z,14.20
2023-04-09T15:21:33.749Z,14.20
2023-04-09T15:24:03.862Z,14.10
2023-04-09T15:26:33.179Z,14.00
2023-04-09T15:29:04.606Z,14.00
2023-04-09T15:31:33.372Z,14.20
2023-04-09T15:34:01.743Z,14.20
2023-04-09T15:36:32.575Z,14.10
2023-04-09T15:39:03.677Z,14.10
2023-04-09T15:41:35.014Z,14.10
2023-04-09T15:44:03.300Z,13.90
2023-04-09T15:46:31.670Z,13.70
2023-04-09T15:49:01.467Z,13.50
2023-04-09T15:51:31.199Z,13.60
2023-04-09T15:54:02.501Z,13.50
2023-04-09T15:56:32.032Z,13.20
2023-04-09T15:59:05.130Z,13.20
2023-04-09T16:01:34.704Z,13.20
2023-04-09T16:04:05.657Z,13.20
2023-04-09T16:06:35.577Z,13.20
2023-04-09T16:09:06.793Z,13.40
2023-04-09T16:11:36.315Z,13.40
2023-04-09T16:14:05.811Z,13.50
2023-04-09T16:16:34.124Z,13.50
2023-04-09T16:19:03.759Z,13.60
2023-04-09T16:21:33.403Z,13.70
2023-04-09T16:24:02.682Z,13.60
2023-04-09T16:26:33.525Z,13.70
2023-04-09T16:29:04.106Z,13.80
2023-04-09T16:31:35.385Z,13.90
2023-04-09T16:34:05.037Z,13.90
2023-04-09T16:36:38.426Z,13.70
2023-04-09T16:39:07.979Z,13.40
2023-04-09T16:41:40.356Z,13.30
2023-04-09T16:44:09.761Z,12.90
2023-04-09T16:46:40.502Z,13.00
2023-04-09T16:49:09.967Z,13.10
2023-04-09T16:51:40.960Z,12.80
2023-04-09T16:54:09.369Z,12.80
2023-04-09T17:11:44.626Z,10.90
2023-04-09T17:14:13.120Z,10.20
2023-04-09T17:16:44.059Z,10.60
2023-04-09T17:19:14.614Z,11.80
2023-04-09T17:21:44.307Z,10.40
2023-04-09T17:24:12.554Z,12.00
2023-04-09T17:26:43.393Z,12.00
2023-04-09T17:29:11.842Z,10.80
2023-04-09T17:31:42.644Z,10.10
2023-04-09T17:34:11.644Z,10.70
2023-04-09T17:39:12.623Z,11.00
2023-04-09T17:41:45.030Z,11.00
2023-04-09T17:44:13.375Z,11.00
2023-04-09T17:46:42.460Z,11.00
2023-04-09T17:49:12.183Z,10.80
2023-04-09T17:51:40.539Z,10.40
2023-04-09T17:54:10.007Z,10.10
2023-04-09T17:56:39.651Z,9.80
2023-04-09T17:59:10.577Z,9.50
2023-04-09T18:01:40.175Z,9.30
2023-04-09T18:04:10.802Z,9.00
2023-04-09T18:06:41.894Z,9.10
2023-04-09T18:09:10.245Z,8.50
2023-04-09T18:11:41.088Z,8.80
2023-04-09T18:14:12.164Z,8.20
2023-04-09T18:16:43.645Z,8.90
2023-04-09T18:19:11.913Z,7.80
2023-04-09T18:21:40.426Z,7.60
2023-04-09T18:24:09.379Z,7.40
2023-04-09T18:26:37.622Z,7.30
2023-04-09T18:29:07.680Z,7.10
2023-04-09T18:31:37.407Z,7.00
2023-04-09T18:34:05.731Z,6.90
2023-04-09T18:36:34.016Z,6.70
2023-04-09T18:39:05.808Z,7.30
2023-04-09T18:41:35.292Z,6.50
2023-04-09T18:44:04.766Z,6.30
2023-04-09T18:46:33.052Z,6.30
2023-04-09T18:49:02.818Z,6.10
2023-04-09T18:51:33.042Z,6.00
2023-04-09T18:54:02.064Z,6.10
2023-04-09T18:56:30.412Z,5.80
2023-04-09T18:58:58.579Z,5.60
2023-04-09T19:01:27.989Z,5.50
2023-04-09T19:03:56.448Z,5.50
2023-04-09T19:06:29.071Z,6.10
2023-04-09T19:08:59.041Z,5.50
2023-04-09T19:11:30.052Z,6.20
2023-04-09T19:13:58.269Z,5.40
2023-04-09T19:16:29.020Z,5.30
2023-04-09T19:18:57.687Z,5.20
2023-04-09T19:21:30.079Z,5.20
2023-04-09T19:24:00.094Z,5.80
2023-04-09T19:26:28.379Z,5.50
2023-04-09T19:28:56.643Z,4.80
2023-04-09T19:31:26.289Z,4.80
2023-04-09T19:33:54.495Z,4.70
2023-04-09T19:36:25.215Z,4.60
2023-04-09T19:38:54.859Z,4.60
2023-04-09T19:41:24.400Z,4.50
2023-04-09T19:43:53.888Z,4.50
2023-04-09T19:46:24.592Z,4.40
2023-04-09T19:48:53.023Z,4.90
2023-04-09T19:51:23.898Z,4.30
2023-04-09T19:53:52.119Z,4.50
2023-04-09T19:56:22.152Z,5.20
2023-04-09T19:58:51.792Z,4.40
2023-04-09T20:01:21.959Z,4.30
2023-04-09T20:03:50.301Z,4.20
2023-04-09T20:06:18.647Z,4.10
2023-04-09T20:08:46.881Z,4.00
2023-04-09T20:11:18.338Z,4.00
2023-04-09T20:13:48.184Z,3.90
2023-04-09T20:16:18.965Z,3.90
2023-04-09T20:18:47.522Z,3.80
2023-04-09T20:21:18.234Z,3.70
2023-04-09T20:23:46.487Z,3.60
2023-04-09T20:26:17.533Z,3.60
2023-04-09T20:28:49.168Z,3.50
2023-04-09T20:31:19.915Z,3.90
2023-04-09T20:33:48.153Z,3.40
2023-04-09T20:36:18.970Z,3.30
2023-04-09T20:38:49.592Z,3.80
2023-04-09T20:41:19.325Z,3.30
2023-04-09T20:43:48.933Z,3.30
2023-04-09T20:46:18.500Z,3.40
2023-04-09T20:48:47.931Z,4.20
2023-04-09T20:51:17.422Z,4.30
2023-04-09T20:53:45.636Z,3.30
2023-04-09T20:56:15.067Z,3.30
2023-04-09T20:58:45.783Z,3.40
2023-04-09T21:01:16.591Z,3.40
2023-04-09T21:03:45.419Z,3.40
2023-04-09T21:06:13.722Z,3.30
2023-04-09T21:08:45.400Z,3.30
2023-04-09T21:11:15.077Z,3.20
2023-04-09T21:13:53.859Z,3.30
2023-04-09T21:16:27.175Z,4.00
2023-04-09T21:18:56.875Z,4.40
2023-04-09T21:21:28.635Z,4.40
2023-04-09T21:23:56.843Z,3.40
2023-04-09T21:26:25.212Z,3.50
2023-04-09T21:28:53.837Z,3.40
2023-04-09T21:31:23.749Z,3.40
2023-04-09T21:33:55.839Z,3.20
2023-04-09T21:36:27.463Z,3.10
2023-04-09T21:38:55.791Z,3.10
2023-04-09T21:41:24.191Z,3.00
2023-04-09T21:43:53.610Z,3.00
2023-04-09T21:46:23.076Z,2.90
2023-04-09T21:48:53.940Z,2.80
2023-04-09T21:51:23.559Z,2.80
2023-04-09T21:53:54.199Z,2.60
2023-04-09T21:56:23.609Z,2.50
2023-04-09T21:58:53.421Z,2.50
2023-04-09T22:01:29.071Z,2.40
2023-04-09T22:04:00.876Z,3.00
2023-04-09T22:06:29.711Z,2.60
2023-04-09T22:09:00.621Z,3.80
2023-04-09T22:11:30.851Z,2.60
2023-04-09T22:13:59.119Z,2.60
2023-04-09T22:16:28.715Z,2.50
2023-04-09T22:18:58.638Z,2.50
2023-04-09T22:21:28.131Z,2.40
2023-04-09T22:23:58.746Z,2.40
2023-04-09T22:26:28.823Z,3.10
2023-04-09T22:28:58.200Z,2.30
2023-04-09T22:31:28.692Z,2.30
2023-04-09T22:34:10.064Z,2.30
2023-04-09T22:36:46.868Z,2.40
2023-04-09T22:39:16.431Z,2.50
2023-04-09T22:41:44.751Z,3.70
2023-04-09T22:44:14.305Z,2.60
2023-04-09T22:46:43.698Z,2.60
2023-04-09T22:49:15.686Z,2.60
2023-04-09T22:51:45.752Z,2.60
2023-04-09T22:54:15.429Z,3.20
2023-04-09T22:56:45.323Z,2.60
2023-04-09T22:59:15.969Z,2.50
2023-04-09T23:01:45.430Z,2.50
2023-04-09T23:04:18.049Z,2.40
2023-04-09T23:06:47.457Z,2.40
2023-04-09T23:09:18.024Z,2.40
2023-04-09T23:11:46.472Z,2.30
2023-04-09T23:14:15.057Z,2.30
2023-04-09T23:16:43.225Z,2.30
2023-04-09T23:19:11.806Z,2.30
2023-04-09T23:21:42.621Z,2.30
2023-04-09T23:24:12.030Z,2.20
2023-04-09T23:26:41.524Z,2.20
2023-04-09T23:29:10.888Z,2.20
2023-04-09T23:31:40.397Z,1.20
2023-04-09T23:34:09.901Z,0.90
2023-04-09T23:36:38.068Z,1.30
2023-04-09T23:39:10.054Z,1.50
2023-04-09T23:41:39.490Z,3.60
2023-04-09T23:49:11.373Z,2.30
2023-04-09T23:54:10.685Z,2.60
2023-04-09T23:56:40.458Z,2.50
2023-04-09T23:59:08.764Z,3.40
